createdAt,value
2022-11-05T00:01:53.412Z,7.88
2022-11-05T00:04:38.705Z,6.53
2022-11-05T00:07:36.441Z,8.25
2022-11-05T00:10:12.302Z,6.10
2022-11-05T00:12:57.399Z,6.47
2022-11-05T00:15:42.259Z,5.93
2022-11-05T00:18:08.797Z,6.57
2022-11-05T00:20:35.277Z,6.00
2022-11-05T00:23:21.250Z,6.65
2022-11-05T00:25:58.258Z,9.23
2022-11-05T00:28:26.018Z,6.75
2022-11-05T00:30:52.800Z,7.82
2022-11-05T00:33:19.328Z,7.88
2022-11-05T00:35:45.802Z,6.28
2022-11-05T00:38:12.278Z,6.47
2022-11-05T00:40:39.085Z,7.95
2022-11-05T00:43:24.362Z,7.13
2022-11-05T00:45:50.829Z,11.27
2022-11-05T00:48:35.789Z,7.40
2022-11-05T00:51:02.279Z,7.82
2022-11-05T00:53:28.876Z,7.80
2022-11-05T00:55:55.330Z,7.93
2022-11-05T00:58:22.621Z,8.05
2022-11-05T01:00:54.368Z,8.40
2022-11-05T01:03:24.114Z,8.65
2022-11-05T01:05:53.681Z,9.63
2022-11-05T01:08:22.180Z,10.07
2022-11-05T01:10:51.300Z,8.32
2022-11-05T01:13:23.592Z,8.77
2022-11-05T01:15:50.913Z,9.40
2022-11-05T01:18:18.285Z,9.50
2022-11-05T01:20:44.811Z,8.50
2022-11-05T01:23:13.776Z,8.10
2022-11-05T01:25:41.834Z,9.02
2022-11-05T01:28:09.589Z,8.18
2022-11-05T01:30:37.773Z,8.23
2022-11-05T01:33:04.349Z,8.50
2022-11-05T01:35:30.815Z,8.45
2022-11-05T01:37:57.278Z,8.48
2022-11-05T01:40:24.623Z,8.75
2022-11-05T01:42:51.235Z,8.68
2022-11-05T01:45:26.819Z,7.97
2022-11-05T01:47:59.360Z,8.73
2022-11-05T01:50:34.463Z,10.43
2022-11-05T01:53:11.228Z,8.75
2022-11-05T01:55:44.616Z,7.95
2022-11-05T01:58:15.166Z,8.27
2022-11-05T02:00:42.835Z,7.35
2022-11-05T02:03:09.891Z,8.10
2022-11-05T02:05:37.044Z,9.02
2022-11-05T02:08:03.725Z,7.70
2022-11-05T02:10:30.605Z,7.32
2022-11-05T02:12:57.121Z,9.52
2022-11-05T02:15:36.650Z,7.18
2022-11-05T02:18:40.984Z,6.57
2022-11-05T02:21:43.070Z,6.72
2022-11-05T02:24:47.420Z,8.15
2022-11-05T02:27:29.199Z,7.05
2022-11-05T02:30:06.469Z,8.05
2022-11-05T02:33:11.288Z,7.28
2022-11-05T02:35:45.703Z,6.60
2022-11-05T02:38:28.146Z,8.30
2022-11-05T02:41:04.952Z,6.95
2022-11-05T02:43:44.653Z,7.00
2022-11-05T02:46:34.626Z,7.07
2022-11-05T02:49:17.152Z,6.90
2022-11-05T02:51:58.205Z,7.05
2022-11-05T02:54:32.794Z,9.43
2022-11-05T02:57:00.944Z,7.13
2022-11-05T02:59:27.402Z,8.95
2022-11-05T03:01:54.483Z,7.25
2022-11-05T03:04:23.425Z,6.95
2022-11-05T03:07:17.186Z,9.13
2022-11-05T03:10:09.805Z,8.38
2022-11-05T03:13:05.329Z,6.97
2022-11-05T03:15:52.599Z,7.18
2022-11-05T03:18:39.407Z,7.68
2022-11-05T03:21:11.743Z,7.65
2022-11-05T03:23:50.747Z,7.72
2022-11-05T03:26:26.322Z,8.48
2022-11-05T03:29:06.988Z,8.18
2022-11-05T03:31:35.196Z,7.97
2022-11-05T03:34:04.231Z,6.93
2022-11-05T03:36:52.970Z,7.95
2022-11-05T03:39:42.838Z,9.88
2022-11-05T03:42:15.214Z,9.07
2022-11-05T03:44:49.430Z,9.38
2022-11-05T03:47:21.012Z,9.13
2022-11-05T03:50:17.521Z,8.73
2022-11-05T03:52:54.635Z,9.63
2022-11-05T03:55:26.041Z,12.55
2022-11-05T03:57:55.555Z,10.50
2022-11-05T04:00:23.300Z,8.98
2022-11-05T04:02:50.170Z,8.88
2022-11-05T04:05:16.842Z,10.88
2022-11-05T04:08:14.330Z,9.10
2022-11-05T04:11:07.271Z,11.38
2022-11-05T04:13:33.789Z,9.27
2022-11-05T04:16:18.861Z,10.10
2022-11-05T04:18:45.334Z,10.35
2022-11-05T04:21:30.467Z,10.13
2022-11-05T04:24:09.301Z,13.82
2022-11-05T04:26:41.786Z,10.13
2022-11-05T04:29:26.711Z,14.50
2022-11-05T04:31:53.642Z,10.70
2022-11-05T04:34:21.953Z,13.20
2022-11-05T04:36:49.716Z,12.43
2022-11-05T04:39:17.498Z,11.60
2022-11-05T04:41:44.807Z,13.07
2022-11-05T04:44:11.264Z,11.27
2022-11-05T04:46:37.735Z,15.02
2022-11-05T04:49:04.248Z,12.25
2022-11-05T04:51:30.774Z,12.48
2022-11-05T04:53:57.315Z,11.38
2022-11-05T04:56:25.106Z,12.27
2022-11-05T04:58:51.850Z,12.65
2022-11-05T05:01:21.038Z,13.52
2022-11-05T05:03:48.916Z,12.25
2022-11-05T05:06:16.065Z,13.43
2022-11-05T05:08:42.612Z,13.48
2022-11-05T05:11:14.894Z,12.45
2022-11-05T05:13:41.417Z,12.65
2022-11-05T05:16:09.935Z,13.85
2022-11-05T05:18:36.445Z,15.55
2022-11-05T05:21:21.714Z,14.57
2022-11-05T05:23:48.535Z,13.68
2022-11-05T05:26:16.132Z,12.52
2022-11-05T05:28:42.633Z,15.82
2022-11-05T05:31:09.268Z,13.35
2022-11-05T05:33:35.752Z,13.38
2022-11-05T05:36:07.013Z,16.35
2022-11-05T05:38:36.575Z,14.18
2022-11-05T05:41:03.215Z,13.75
2022-11-05T05:43:33.642Z,13.15
2022-11-05T05:46:04.290Z,16.55
2022-11-05T05:48:31.086Z,12.70
2022-11-05T05:51:06.266Z,15.40
2022-11-05T05:53:33.170Z,13.95
2022-11-05T05:56:00.396Z,13.95
2022-11-05T05:58:31.578Z,13.57
2022-11-05T06:01:01.446Z,14.02
2022-11-05T06:03:27.931Z,13.32
2022-11-05T06:05:59.155Z,15.38
2022-11-05T06:08:25.618Z,17.45
2022-11-05T06:10:52.417Z,17.95
2022-11-05T06:13:18.986Z,15.20
2022-11-05T06:15:45.512Z,17.65
2022-11-05T06:18:12.050Z,15.25
2022-11-05T06:20:38.529Z,14.75
2022-11-05T06:23:05.011Z,13.85
2022-11-05T06:25:31.487Z,14.57
2022-11-05T06:27:58.034Z,14.32
2022-11-05T06:30:24.532Z,15.55
2022-11-05T06:32:50.997Z,14.40
2022-11-05T06:35:17.491Z,14.98
2022-11-05T06:37:43.966Z,17.88
2022-11-05T06:40:10.615Z,14.63
2022-11-05T06:42:37.114Z,16.63
2022-11-05T06:45:03.750Z,15.30
2022-11-05T06:47:30.232Z,15.63
2022-11-05T06:49:57.323Z,15.30
2022-11-05T06:52:23.774Z,14.63
2022-11-05T06:54:50.321Z,15.98
2022-11-05T06:57:16.776Z,15.68
2022-11-05T06:59:43.252Z,15.10
2022-11-05T07:02:13.401Z,15.30
2022-11-05T07:04:39.941Z,15.65
2022-11-05T07:07:06.404Z,15.32
2022-11-05T07:09:32.968Z,15.40
2022-11-05T07:11:59.477Z,15.13
2022-11-05T07:14:25.945Z,14.63
2022-11-05T07:16:52.421Z,15.07
2022-11-05T07:19:18.884Z,14.98
2022-11-05T07:21:45.918Z,15.25
2022-11-05T07:24:14.267Z,15.50
2022-11-05T07:26:41.095Z,18.50
2022-11-05T07:29:07.688Z,14.32
2022-11-05T07:31:34.170Z,16.00
2022-11-05T07:34:00.929Z,14.43
2022-11-05T07:36:27.405Z,14.27
2022-11-05T07:38:58.965Z,15.18
2022-11-05T07:41:26.795Z,15.13
2022-11-05T07:43:53.261Z,14.82
2022-11-05T07:46:19.713Z,15.75
2022-11-05T07:48:46.187Z,14.30
2022-11-05T07:51:12.667Z,14.35
2022-11-05T07:53:44.063Z,14.27
2022-11-05T07:56:12.816Z,13.98
2022-11-05T07:58:39.287Z,14.00
2022-11-05T08:01:07.164Z,15.77
2022-11-05T08:03:34.267Z,15.88
2022-11-05T08:06:00.923Z,14.25
2022-11-05T08:08:27.395Z,13.60
2022-11-05T08:10:53.875Z,15.20
2022-11-05T08:13:20.399Z,13.13
2022-11-05T08:15:47.003Z,16.60
2022-11-05T08:18:17.588Z,14.27
2022-11-05T08:20:45.124Z,15.00
2022-11-05T08:23:12.115Z,14.40
2022-11-05T08:25:39.703Z,14.63
2022-11-05T08:28:10.295Z,14.23
2022-11-05T08:30:36.785Z,15.35
2022-11-05T08:33:09.141Z,15.48
2022-11-05T08:35:38.012Z,14.35
2022-11-05T08:38:06.443Z,16.20
2022-11-05T08:40:34.615Z,14.68
2022-11-05T08:43:03.274Z,19.42
2022-11-05T08:45:30.308Z,15.13
2022-11-05T08:48:09.504Z,15.63
2022-11-05T08:50:37.214Z,19.30
2022-11-05T08:53:04.942Z,16.02
2022-11-05T08:55:31.899Z,17.92
2022-11-05T08:58:00.458Z,16.58
2022-11-05T09:00:28.083Z,19.65
2022-11-05T09:02:54.863Z,16.33
2022-11-05T09:05:21.436Z,15.68
2022-11-05T09:07:47.927Z,17.63
2022-11-05T09:10:14.559Z,16.98
2022-11-05T09:12:41.070Z,15.90
2022-11-05T09:15:08.063Z,15.27
2022-11-05T09:17:34.963Z,15.25
2022-11-05T09:20:02.192Z,16.05
2022-11-05T09:22:28.743Z,15.15
2022-11-05T09:24:55.248Z,14.35
2022-11-05T09:27:21.725Z,14.63
2022-11-05T09:29:48.250Z,16.30
2022-11-05T09:32:18.463Z,16.90
2022-11-05T09:34:45.364Z,15.13
2022-11-05T09:37:12.282Z,15.73
2022-11-05T09:39:38.751Z,13.55
2022-11-05T09:42:08.920Z,13.15
2022-11-05T09:44:44.714Z,14.40
2022-11-05T09:47:17.714Z,12.25
2022-11-05T09:49:51.662Z,12.65
2022-11-05T09:52:25.592Z,13.18
2022-11-05T09:54:54.151Z,13.35
2022-11-05T09:57:25.524Z,13.23
2022-11-05T09:59:58.721Z,13.80
2022-11-05T10:02:35.247Z,11.75
2022-11-05T10:05:09.934Z,12.88
2022-11-05T10:07:47.454Z,13.43
2022-11-05T10:10:48.922Z,10.57
2022-11-05T10:14:00.212Z,13.37
2022-11-05T10:16:31.301Z,12.23
2022-11-05T10:19:24.417Z,10.93
2022-11-05T10:22:06.860Z,12.73
2022-11-05T10:24:33.959Z,12.15
2022-11-05T10:27:00.619Z,13.20
2022-11-05T10:29:30.143Z,11.40
2022-11-05T10:31:58.261Z,12.95
2022-11-05T10:34:33.436Z,11.30
2022-11-05T10:37:00.424Z,13.10
2022-11-05T10:39:30.031Z,14.68
2022-11-05T10:42:05.647Z,11.75
2022-11-05T10:44:48.463Z,13.07
2022-11-05T10:47:49.943Z,11.70
2022-11-05T10:50:24.077Z,11.00
2022-11-05T10:52:59.550Z,15.07
2022-11-05T10:55:51.552Z,10.60
2022-11-05T10:58:20.046Z,12.20
2022-11-05T11:01:02.490Z,11.93
2022-11-05T11:03:34.931Z,11.55
2022-11-05T11:06:04.691Z,12.95
2022-11-05T11:08:35.520Z,11.07
2022-11-05T11:11:10.331Z,14.27
2022-11-05T11:13:51.385Z,11.75
2022-11-05T11:16:24.613Z,11.80
2022-11-05T11:19:02.991Z,15.13
2022-11-05T11:21:31.714Z,13.18
2022-11-05T11:23:58.260Z,15.90
2022-11-05T11:26:28.693Z,15.07
2022-11-05T11:29:15.980Z,12.00
2022-11-05T11:31:42.646Z,11.95
2022-11-05T11:34:28.094Z,15.35
2022-11-05T11:37:08.606Z,12.43
2022-11-05T11:39:37.198Z,13.95
2022-11-05T11:42:11.586Z,15.40
2022-11-05T11:44:44.356Z,14.30
2022-11-05T11:47:14.654Z,14.57
2022-11-05T11:49:50.117Z,13.43
2022-11-05T11:52:29.015Z,12.93
2022-11-05T11:55:11.913Z,13.40
2022-11-05T11:57:53.723Z,13.35
2022-11-05T12:00:23.928Z,12.57
2022-11-05T12:03:25.918Z,11.85
2022-11-05T12:06:21.193Z,10.10
2022-11-05T12:09:20.356Z,10.13
2022-11-05T12:12:14.290Z,10.45
2022-11-05T12:15:09.722Z,9.68
2022-11-05T12:17:43.571Z,9.82
2022-11-05T12:20:23.296Z,9.57
2022-11-05T12:23:17.552Z,11.98
2022-11-05T12:26:02.825Z,9.98
2022-11-05T12:29:16.619Z,9.20
2022-11-05T12:31:47.653Z,9.30
2022-11-05T12:34:43.315Z,11.63
2022-11-05T12:37:38.158Z,8.85
2022-11-05T12:40:32.367Z,10.18
2022-11-05T12:43:20.015Z,8.93
2022-11-05T12:46:34.707Z,10.25
2022-11-05T12:49:22.302Z,10.55
2022-11-05T12:52:01.604Z,11.35
2022-11-05T12:55:03.140Z,11.25
2022-11-05T12:57:32.025Z,9.88
2022-11-05T13:00:11.093Z,14.35
2022-11-05T13:02:41.007Z,14.18
2022-11-05T13:05:23.453Z,11.57
2022-11-05T13:08:07.540Z,9.57
2022-11-05T13:10:40.908Z,8.88
2022-11-05T13:13:18.824Z,7.88
2022-11-05T13:15:59.232Z,9.02
2022-11-05T13:18:31.094Z,8.82
2022-11-05T13:23:39.560Z,10.77
2022-11-05T13:26:19.406Z,8.27
2022-11-05T13:29:04.908Z,9.68
2022-11-05T13:31:41.802Z,7.57
2022-11-05T13:34:13.005Z,9.25
2022-11-05T13:37:19.766Z,7.15
2022-11-05T13:39:56.350Z,6.25
2022-11-05T13:42:44.527Z,7.97
2022-11-05T13:45:35.980Z,8.68
2022-11-05T13:48:20.747Z,8.82
2022-11-05T13:50:56.309Z,6.72
2022-11-05T13:53:42.569Z,7.53
2022-11-05T13:56:32.934Z,6.65
2022-11-05T13:59:14.514Z,7.95
2022-11-05T14:01:59.665Z,6.25
2022-11-05T14:04:31.872Z,6.60
2022-11-05T14:07:24.735Z,7.18
2022-11-05T14:09:57.146Z,6.05
2022-11-05T14:12:35.247Z,5.72
2022-11-05T14:15:21.414Z,6.60
2022-11-05T14:18:06.351Z,7.28
2022-11-05T14:20:32.760Z,8.50
2022-11-05T14:23:17.596Z,7.85
2022-11-05T14:25:44.009Z,7.22
2022-11-05T14:28:35.197Z,7.40
2022-11-05T14:31:47.269Z,8.45
2022-11-05T14:34:13.636Z,7.57
2022-11-05T14:36:41.857Z,8.13
2022-11-05T14:39:25.135Z,6.88
2022-11-05T14:42:02.959Z,6.63
2022-11-05T14:44:32.842Z,6.80
2022-11-05T14:47:04.460Z,8.52
2022-11-05T14:49:49.104Z,7.00
2022-11-05T14:52:18.249Z,10.70
2022-11-05T14:54:56.931Z,8.27
2022-11-05T14:57:41.910Z,8.00
2022-11-05T15:00:29.952Z,7.70
2022-11-05T15:03:02.106Z,7.03
2022-11-05T15:05:33.147Z,8.05
2022-11-05T15:08:19.950Z,8.05
2022-11-05T15:10:48.957Z,8.13
2022-11-05T15:13:30.323Z,10.07
2022-11-05T15:15:58.441Z,8.15
2022-11-05T15:18:39.859Z,7.75
2022-11-05T15:21:09.033Z,8.23
2022-11-05T15:23:43.224Z,9.32
2022-11-05T15:26:25.798Z,7.78
2022-11-05T15:28:54.529Z,8.43
2022-11-05T15:31:37.222Z,7.15
2022-11-05T15:34:35.407Z,10.27
2022-11-05T15:37:12.282Z,6.80
2022-11-05T15:39:40.567Z,6.72
2022-11-05T15:42:12.287Z,9.00
2022-11-05T15:44:47.077Z,7.90
2022-11-05T15:47:42.675Z,9.57
2022-11-05T15:50:15.410Z,9.40
2022-11-05T15:52:50.783Z,10.13
2022-11-05T15:55:25.334Z,8.82
2022-11-05T15:58:03.068Z,11.07
2022-11-05T16:00:33.047Z,8.57
2022-11-05T16:03:15.808Z,6.68
2022-11-05T16:05:45.011Z,7.25
2022-11-05T16:08:16.787Z,8.38
2022-11-05T16:13:34.599Z,8.15
2022-11-05T16:16:25.358Z,8.63
2022-11-05T16:18:52.689Z,12.23
2022-11-05T16:21:22.645Z,9.20
2022-11-05T16:23:49.148Z,7.70
2022-11-05T16:27:01.301Z,9.52
2022-11-05T16:29:29.479Z,6.65
2022-11-05T16:31:57.704Z,8.48
2022-11-05T16:34:29.960Z,8.00
2022-11-05T16:36:58.941Z,9.27
2022-11-05T16:39:26.574Z,8.60
2022-11-05T16:41:53.201Z,8.73
2022-11-05T16:44:19.675Z,7.13
2022-11-05T16:46:49.875Z,13.65
2022-11-05T16:49:17.321Z,10.32
2022-11-05T16:51:44.425Z,10.48
2022-11-05T16:54:10.935Z,11.70
2022-11-05T16:56:39.807Z,11.20
2022-11-05T16:59:09.355Z,11.38
2022-11-05T17:01:39.292Z,10.75
2022-11-05T17:04:05.893Z,7.57
2022-11-05T17:06:32.363Z,8.43
2022-11-05T17:08:58.856Z,9.98
2022-11-05T17:11:25.405Z,8.85
2022-11-05T17:13:51.865Z,8.18
2022-11-05T17:16:18.391Z,11.75
2022-11-05T17:18:44.961Z,8.05
2022-11-05T17:21:12.568Z,12.75
2022-11-05T17:23:39.997Z,10.70
2022-11-05T17:26:09.773Z,10.93
2022-11-05T17:28:37.744Z,11.07
2022-11-05T17:31:07.574Z,9.45
2022-11-05T17:33:34.410Z,7.50
2022-11-05T17:36:05.902Z,9.32
2022-11-05T17:38:32.350Z,7.53
2022-11-05T17:40:58.821Z,10.95
2022-11-05T17:43:25.320Z,11.38
2022-11-05T17:45:52.479Z,8.32
2022-11-05T17:48:20.280Z,9.35
2022-11-05T17:50:49.979Z,9.75
2022-11-05T17:53:18.078Z,9.65
2022-11-05T17:55:46.086Z,8.68
2022-11-05T17:58:13.049Z,11.25
2022-11-05T18:00:40.768Z,7.50
2022-11-05T18:03:07.319Z,11.15
2022-11-05T18:05:34.599Z,7.65
2022-11-05T18:08:01.285Z,9.35
2022-11-05T18:10:27.761Z,9.43
2022-11-05T18:12:54.243Z,9.85
2022-11-05T18:15:20.926Z,8.13
2022-11-05T18:17:47.536Z,11.10
2022-11-05T18:20:18.860Z,9.43
2022-11-05T18:22:48.686Z,9.80
2022-11-05T18:25:15.925Z,7.43
2022-11-05T18:27:42.688Z,8.60
2022-11-05T18:30:10.973Z,8.02
2022-11-05T18:32:37.447Z,13.73
2022-11-05T18:35:04.123Z,9.40
2022-11-05T18:37:30.598Z,8.63
2022-11-05T18:39:57.067Z,9.55
2022-11-05T18:42:25.289Z,8.85
2022-11-05T18:44:51.921Z,8.55
2022-11-05T18:47:18.429Z,8.10
2022-11-05T18:49:44.881Z,11.43
2022-11-05T18:52:11.498Z,10.60
2022-11-05T18:54:38.009Z,10.50
2022-11-05T18:57:04.488Z,8.82
2022-11-05T18:59:37.781Z,11.75
2022-11-05T19:02:06.347Z,11.98
2022-11-05T19:04:35.385Z,10.57
2022-11-05T19:07:05.145Z,12.60
2022-11-05T19:09:36.809Z,11.07
2022-11-05T19:12:04.387Z,9.63
2022-11-05T19:14:31.011Z,11.05
2022-11-05T19:16:58.956Z,14.20
2022-11-05T19:19:25.806Z,9.73
2022-11-05T19:21:52.411Z,11.75
2022-11-05T19:24:19.139Z,11.10
2022-11-05T19:26:46.651Z,11.50
2022-11-05T19:29:13.178Z,11.80
2022-11-05T19:31:39.639Z,11.15
2022-11-05T19:34:06.129Z,10.60
2022-11-05T19:36:33.351Z,12.00
2022-11-05T19:39:06.297Z,11.82
2022-11-05T19:41:32.967Z,12.15
2022-11-05T19:44:01.426Z,13.98
2022-11-05T19:46:29.081Z,11.68
2022-11-05T19:48:56.262Z,12.80
2022-11-05T19:51:25.635Z,13.18
2022-11-05T19:53:53.425Z,11.18
2022-11-05T19:56:22.625Z,12.38
2022-11-05T19:58:49.478Z,11.60
2022-11-05T20:01:17.968Z,11.77
2022-11-05T20:03:44.741Z,10.25
2022-11-05T20:06:17.312Z,12.27
2022-11-05T20:09:07.041Z,10.52
2022-11-05T20:11:31.070Z,11.05
2022-11-05T20:13:57.744Z,12.38
2022-11-05T20:16:32.106Z,12.63
2022-11-05T20:18:58.575Z,11.30
2022-11-05T20:21:25.046Z,12.23
2022-11-05T20:23:51.595Z,13.15
2022-11-05T20:26:18.063Z,11.48
2022-11-05T20:28:45.516Z,11.85
2022-11-05T20:31:15.584Z,14.55
2022-11-05T20:33:43.170Z,12.10
2022-11-05T20:36:13.629Z,11.60
2022-11-05T20:38:40.426Z,13.73
2022-11-05T20:41:09.153Z,12.48
2022-11-05T20:43:36.229Z,12.57
2022-11-05T20:46:02.947Z,12.13
2022-11-05T20:48:34.315Z,12.27
2022-11-05T20:51:05.747Z,11.20
2022-11-05T20:53:32.301Z,14.82
2022-11-05T20:56:01.467Z,12.50
2022-11-05T20:58:31.688Z,14.85
2022-11-05T21:00:58.176Z,12.43
2022-11-05T21:03:24.719Z,12.60
2022-11-05T21:05:59.815Z,12.48
2022-11-05T21:08:27.377Z,13.75
2022-11-05T21:10:55.061Z,11.82
2022-11-05T21:13:22.401Z,12.63
2022-11-05T21:15:51.399Z,11.80
2022-11-05T21:18:19.232Z,11.98
2022-11-05T21:20:46.717Z,14.23
2022-11-05T21:23:14.168Z,12.15
2022-11-05T21:25:41.522Z,14.38
2022-11-05T21:28:10.745Z,16.90
2022-11-05T21:30:41.404Z,14.63
2022-11-05T21:33:08.827Z,11.05
2022-11-05T21:35:39.901Z,11.27
2022-11-05T21:38:06.788Z,12.57
2022-11-05T21:40:33.265Z,10.82
2022-11-05T21:42:59.725Z,12.20
2022-11-05T21:45:26.193Z,11.35
2022-11-05T21:47:52.683Z,11.15
2022-11-05T21:50:21.946Z,11.02
2022-11-05T21:53:06.978Z,10.27
2022-11-05T21:55:51.679Z,10.30
2022-11-05T21:58:36.581Z,11.32
2022-11-05T22:01:03.753Z,13.57
2022-11-05T22:03:30.238Z,10.80
2022-11-05T22:05:57.019Z,13.13
2022-11-05T22:08:23.506Z,11.10
2022-11-05T22:10:50.011Z,11.80
2022-11-05T22:13:16.502Z,10.73
2022-11-05T22:15:42.969Z,12.40
2022-11-05T22:18:09.719Z,12.77
2022-11-05T22:20:39.675Z,10.40
2022-11-05T22:23:10.860Z,11.38
2022-11-05T22:25:37.936Z,11.18
2022-11-05T22:28:04.557Z,12.07
2022-11-05T22:30:34.532Z,11.45
2022-11-05T22:33:01.373Z,11.65
2022-11-05T22:35:28.301Z,12.23
2022-11-05T22:37:54.772Z,13.10
2022-11-05T22:40:23.955Z,11.98
2022-11-05T22:42:50.758Z,11.52
2022-11-05T22:45:17.333Z,9.77
2022-11-05T22:47:43.795Z,12.48
2022-11-05T22:50:10.716Z,11.70
2022-11-05T22:52:37.235Z,11.40
2022-11-05T22:55:06.080Z,10.70
2022-11-05T22:57:32.802Z,10.63
2022-11-05T22:59:59.326Z,12.32
2022-11-05T23:02:25.941Z,12.25
2022-11-05T23:04:52.504Z,11.23
2022-11-05T23:07:37.533Z,10.70
2022-11-05T23:10:22.828Z,12.00
2022-11-05T23:12:49.317Z,11.73
2022-11-05T23:15:34.380Z,13.32
2022-11-05T23:18:20.162Z,11.75
2022-11-05T23:21:05.090Z,11.73
2022-11-05T23:23:50.080Z,11.75
2022-11-05T23:26:34.949Z,9.25
2022-11-05T23:29:01.456Z,10.70
2022-11-05T23:31:46.529Z,10.63
2022-11-05T23:34:12.989Z,11.77
2022-11-05T23:36:57.867Z,12.77
2022-11-05T23:39:24.356Z,10.38
2022-11-05T23:42:09.051Z,10.25
2022-11-05T23:45:11.692Z,13.27
2022-11-05T23:47:59.235Z,8.82
2022-11-05T23:50:26.194Z,10.52
2022-11-05T23:52:54.017Z,11.52
2022-11-05T23:55:21.269Z,10.50
2022-11-05T23:57:47.817Z,9.90
